Time;durP1;ratioP1;P1;durP2;ratioP2;P2;SDS_P1;SDS_P2;PMS_P1;PMS_P2;Temp;Humidity;BMP_temperature;BMP_pressure;BME280_temperature;BME280_humidity;BME280_pressure;Samples;Min_cycle;Max_cycle;Signal;HPM_P1;HPM_P2
2021/04/06 00:01:25;;;;;;;19.52;7.57;;;10.20;87.40;;;;;;4860857;29;20040;-75
2021/04/06 00:03:53;;;;;;;19.42;6.75;;;10.30;85.00;;;;;;4861115;29;20037;-75
2021/04/06 00:06:21;;;;;;;13.13;6.80;;;10.30;83.90;;;;;;4861065;29;20076;-75
2021/04/06 00:08:48;;;;;;;18.70;6.80;;;10.20;85.00;;;;;;4861197;29;20121;-75
2021/04/06 00:11:17;;;;;;;12.50;6.13;;;10.20;86.10;;;;;;4861068;29;20038;-75
2021/04/06 00:13:43;;;;;;;13.93;6.32;;;10.00;85.30;;;;;;4860643;29;20052;-75
2021/04/06 00:16:09;;;;;;;16.85;6.60;;;10.10;85.60;;;;;;4860697;29;20124;-74
2021/04/06 00:18:35;;;;;;;11.45;6.07;;;10.10;84.10;;;;;;4861136;29;20053;-75
2021/04/06 00:21:04;;;;;;;18.88;6.43;;;10.10;80.80;;;;;;4861017;29;20493;-75
2021/04/06 00:23:32;;;;;;;13.77;6.38;;;10.00;82.50;;;;;;4860620;29;20474;-74
2021/04/06 00:25:59;;;;;;;14.95;6.07;;;9.90;82.60;;;;;;4862055;29;20125;-74
2021/04/06 00:28:32;;;;;;;16.63;6.55;;;9.90;82.20;;;;;;4864373;29;20050;-74
2021/04/06 00:31:00;;;;;;;11.80;6.78;;;9.90;82.40;;;;;;4864507;29;20069;-75
2021/04/06 00:33:30;;;;;;;15.95;6.25;;;9.80;82.80;;;;;;4864324;29;20078;-75
2021/04/06 00:36:02;;;;;;;14.25;6.13;;;9.80;81.30;;;;;;4864053;29;20051;-75
2021/04/06 00:38:32;;;;;;;11.02;5.90;;;9.80;80.30;;;;;;4864135;29;20267;-75
2021/04/06 00:41:04;;;;;;;16.13;5.93;;;9.80;80.60;;;;;;4864252;29;20037;-75
2021/04/06 00:43:39;;;;;;;13.63;6.15;;;9.70;81.40;;;;;;4863840;29;20101;-75
2021/04/06 00:46:09;;;;;;;12.95;6.25;;;9.70;81.50;;;;;;4864137;29;20037;-74
2021/04/06 00:48:41;;;;;;;13.10;5.77;;;9.70;81.80;;;;;;4864370;29;20046;-75
2021/04/06 00:51:15;;;;;;;12.27;5.78;;;9.60;81.50;;;;;;4864142;29;20049;-75
2021/04/06 00:53:48;;;;;;;13.43;6.07;;;9.60;82.20;;;;;;4864121;29;20048;-75
2021/04/06 00:56:16;;;;;;;15.77;6.03;;;9.60;83.00;;;;;;4863776;29;20168;-75
2021/04/06 00:58:50;;;;;;;18.15;6.30;;;9.60;83.70;;;;;;4863263;29;20068;-75
2021/04/06 01:01:32;;;;;;;11.68;5.90;;;9.70;83.70;;;;;;4863432;29;20038;-75
2021/04/06 01:03:58;;;;;;;16.30;6.32;;;9.60;84.60;;;;;;4863293;29;20074;-75
2021/04/06 01:06:25;;;;;;;12.15;5.90;;;9.60;85.30;;;;;;4863610;29;20050;-74
2021/04/06 01:08:53;;;;;;;11.75;5.80;;;9.60;85.90;;;;;;4863321;29;20091;-74
2021/04/06 01:11:21;;;;;;;12.43;6.03;;;9.60;86.20;;;;;;4863142;29;20502;-75
2021/04/06 01:13:48;;;;;;;14.02;5.90;;;9.60;87.00;;;;;;4863221;29;20068;-75
2021/04/06 01:16:14;;;;;;;13.80;6.07;;;9.50;86.70;;;;;;4863386;29;20515;-75
2021/04/06 01:18:40;;;;;;;14.10;6.05;;;9.50;87.70;;;;;;4863220;29;20052;-74
2021/04/06 01:21:12;;;;;;;14.10;6.35;;;9.50;89.10;;;;;;4861998;29;20042;-75
2021/04/06 01:23:39;;;;;;;15.30;6.45;;;9.50;89.40;;;;;;4863195;29;20045;-74
2021/04/06 01:26:12;;;;;;;14.07;6.75;;;9.50;90.40;;;;;;4863171;29;20049;-75
2021/04/06 01:28:38;;;;;;;12.15;5.97;;;9.40;91.20;;;;;;4863115;29;20104;-75
2021/04/06 01:31:06;;;;;;;20.63;6.63;;;9.40;91.90;;;;;;4862752;29;20041;-75
2021/04/06 01:33:33;;;;;;;14.27;6.57;;;9.30;93.20;;;;;;4862826;29;20069;-75
2021/04/06 01:36:08;;;;;;;17.10;7.22;;;9.30;93.90;;;;;;4862964;29;20052;-75
2021/04/06 01:38:38;;;;;;;19.50;7.20;;;9.10;95.30;;;;;;4861800;29;20501;-75
2021/04/06 01:41:05;;;;;;;16.00;6.60;;;9.20;95.80;;;;;;4862410;29;20053;-75
2021/04/06 01:43:32;;;;;;;17.60;6.95;;;8.90;97.10;;;;;;4862768;29;20270;-75
2021/04/06 01:46:00;;;;;;;16.60;6.43;;;9.10;97.90;;;;;;4862716;29;20053;-75
2021/04/06 01:48:29;;;;;;;14.65;6.60;;;9.00;98.50;;;;;;4862550;29;20045;-75
2021/04/06 01:50:57;;;;;;;13.98;6.85;;;9.00;98.80;;;;;;4862732;29;20037;-75
2021/04/06 01:53:24;;;;;;;10.80;5.95;;;8.90;99.60;;;;;;4862400;29;20123;-75
2021/04/06 01:55:57;;;;;;;16.50;6.88;;;8.90;99.90;;;;;;4862686;29;20074;-75
2021/04/06 01:58:27;;;;;;;15.52;6.47;;;8.90;99.90;;;;;;4862506;29;20078;-75
2021/04/06 02:01:11;;;;;;;10.98;6.47;;;8.90;99.90;;;;;;4862930;29;20057;-74
2021/04/06 02:03:47;;;;;;;13.07;6.53;;;8.90;99.90;;;;;;4862822;29;20116;-75
2021/04/06 02:06:14;;;;;;;11.05;5.82;;;8.80;99.90;;;;;;4862311;29;20136;-75
2021/04/06 02:08:46;;;;;;;11.15;6.13;;;8.80;99.90;;;;;;4862865;29;20056;-75
2021/04/06 02:11:15;;;;;;;10.27;6.18;;;8.80;99.90;;;;;;4861421;29;20494;-74
2021/04/06 02:13:41;;;;;;;11.63;5.68;;;8.80;99.90;;;;;;4862439;29;20512;-75
2021/04/06 02:16:07;;;;;;;13.40;6.28;;;8.80;99.90;;;;;;4862293;29;20041;-75
2021/04/06 02:18:33;;;;;;;12.95;5.82;;;8.80;99.90;;;;;;4862719;29;20037;-74
2021/04/06 02:21:01;;;;;;;11.73;6.45;;;8.80;99.90;;;;;;4862576;29;20120;-75
2021/04/06 02:23:40;;;;;;;15.35;6.00;;;8.80;99.90;;;;;;4862189;29;20064;-75
2021/04/06 02:26:07;;;;;;;18.80;5.55;;;8.70;99.90;;;;;;4862376;29;20049;-74
2021/04/06 02:28:33;;;;;;;12.98;6.05;;;8.60;99.90;;;;;;4862147;29;20049;-74
2021/04/06 02:31:02;;;;;;;13.05;6.13;;;8.60;99.90;;;;;;4862268;29;20140;-74
2021/04/06 02:33:38;;;;;;;12.43;5.25;;;8.60;99.90;;;;;;4861964;29;20037;-75
2021/04/06 02:36:09;;;;;;;11.50;5.55;;;8.60;99.90;;;;;;4862052;29;20060;-75
2021/04/06 02:38:45;;;;;;;16.42;5.72;;;8.60;99.90;;;;;;4861939;29;20065;-75
2021/04/06 02:41:12;;;;;;;14.52;5.90;;;8.60;99.90;;;;;;4862211;29;20049;-74
2021/04/06 02:43:54;;;;;;;12.38;5.40;;;8.60;99.90;;;;;;4860422;29;20040;-74
2021/04/06 02:46:22;;;;;;;12.23;5.72;;;8.60;99.90;;;;;;4861879;29;20045;-74
2021/04/06 02:48:49;;;;;;;11.27;5.40;;;8.60;99.90;;;;;;4861599;29;20056;-75
2021/04/06 02:51:15;;;;;;;11.40;5.47;;;8.70;99.90;;;;;;4861728;29;20045;-74
2021/04/06 02:53:42;;;;;;;13.55;5.15;;;8.70;99.90;;;;;;4861658;29;20048;-74
2021/04/06 02:56:09;;;;;;;14.63;5.85;;;8.70;99.90;;;;;;4861933;29;20084;-75
2021/04/06 02:58:36;;;;;;;12.27;5.40;;;8.60;99.90;;;;;;4861260;29;20061;-75
2021/04/06 03:01:18;;;;;;;10.50;5.13;;;8.60;99.90;;;;;;4861630;29;20041;-75
2021/04/06 03:03:44;;;;;;;12.07;4.95;;;8.60;99.80;;;;;;4861301;29;20045;-75
2021/04/06 03:06:12;;;;;;;10.80;4.95;;;8.60;99.90;;;;;;4861402;29;20257;-75
2021/04/06 03:08:39;;;;;;;11.18;5.07;;;8.60;99.90;;;;;;4861585;29;20508;-75
2021/04/06 03:11:09;;;;;;;12.05;5.22;;;8.60;99.80;;;;;;4861420;29;20033;-75
2021/04/06 03:13:40;;;;;;;12.38;5.35;;;8.70;99.80;;;;;;4861199;29;20101;-75
2021/04/06 03:16:07;;;;;;;;;;;8.70;99.50;;;;;;4861827;29;20051;-75
2021/04/06 03:18:41;;;;;;;12.32;5.57;;;8.60;99.80;;;;;;4861436;29;19991;-74
2021/04/06 03:21:11;;;;;;;12.52;4.82;;;8.60;99.80;;;;;;4861329;29;20041;-75
2021/04/06 03:23:38;;;;;;;16.98;5.65;;;8.60;99.90;;;;;;4861302;29;20082;-74
2021/04/06 03:26:07;;;;;;;11.43;5.47;;;8.60;99.90;;;;;;4861064;29;20105;-75
2021/04/06 03:28:38;;;;;;;8.90;5.10;;;8.50;99.90;;;;;;4860818;29;20060;-75
2021/04/06 03:31:17;;;;;;;11.68;5.13;;;8.60;99.90;;;;;;4861227;29;20043;-74
2021/04/06 03:33:48;;;;;;;10.93;5.28;;;8.60;99.90;;;;;;4861193;29;20256;-74
2021/04/06 03:36:27;;;;;;;10.25;5.07;;;8.50;99.90;;;;;;4861153;29;20049;-75
2021/04/06 03:38:58;;;;;;;10.23;5.47;;;8.50;99.90;;;;;;4861117;29;20498;-75
2021/04/06 03:41:26;;;;;;;14.23;5.60;;;8.50;99.90;;;;;;4861052;29;20041;-74
2021/04/06 03:44:01;;;;;;;12.00;5.18;;;8.50;99.90;;;;;;4860869;29;20129;-74
2021/04/06 03:46:27;;;;;;;11.68;5.70;;;8.50;99.90;;;;;;4860735;29;20038;-75
2021/04/06 03:49:10;;;;;;;12.77;5.55;;;8.50;99.90;;;;;;4860880;29;20125;-75
2021/04/06 03:51:36;;;;;;;12.80;5.30;;;8.40;99.90;;;;;;4860690;29;20387;-74
2021/04/06 03:54:02;;;;;;;10.57;5.68;;;8.40;99.90;;;;;;4860895;29;20044;-75
2021/04/06 03:56:30;;;;;;;13.30;5.45;;;8.40;99.90;;;;;;4860901;29;20045;-74
2021/04/06 03:58:58;;;;;;;11.15;5.30;;;8.50;99.90;;;;;;4860478;29;20057;-74
2021/04/06 04:01:25;;;;;;;9.45;5.13;;;8.40;99.90;;;;;;4862884;29;20065;-75
2021/04/06 04:03:56;;;;;;;13.45;5.57;;;8.40;99.90;;;;;;4863125;29;20053;-75
2021/04/06 04:06:27;;;;;;;17.92;5.90;;;8.40;99.90;;;;;;4863326;29;20041;-75
2021/04/06 04:08:53;;;;;;;12.43;5.63;;;8.40;99.90;;;;;;4863699;29;20142;-74
2021/04/06 04:11:21;;;;;;;9.60;5.00;;;8.30;99.90;;;;;;4864356;29;20497;-74
2021/04/06 04:13:47;;;;;;;12.07;5.50;;;8.30;99.90;;;;;;4864179;29;20050;-74
2021/04/06 04:16:13;;;;;;;10.70;5.00;;;8.40;99.90;;;;;;4864454;29;20041;-75
2021/04/06 04:18:39;;;;;;;9.60;4.88;;;8.40;99.90;;;;;;4864481;29;20053;-75
2021/04/06 04:21:06;;;;;;;13.10;5.55;;;8.30;99.90;;;;;;4864548;29;20494;-75
2021/04/06 04:23:31;;;;;;;12.50;5.80;;;8.30;99.90;;;;;;4864446;29;20065;-75
2021/04/06 04:25:57;;;;;;;13.73;5.35;;;8.30;99.90;;;;;;4862824;29;20045;-75
2021/04/06 04:28:23;;;;;;;11.82;5.05;;;8.40;99.90;;;;;;4863112;29;20409;-75
2021/04/06 04:30:52;;;;;;;10.38;4.70;;;8.30;99.90;;;;;;4862064;29;20060;-75
2021/04/06 04:33:18;;;;;;;12.18;4.60;;;8.30;99.90;;;;;;4861832;29;20045;-75
2021/04/06 04:35:44;;;;;;;9.85;4.97;;;8.30;99.90;;;;;;4863446;29;20131;-74
2021/04/06 04:38:10;;;;;;;11.77;5.25;;;8.30;99.90;;;;;;4863794;29;20084;-74
2021/04/06 04:40:41;;;;;;;10.25;4.72;;;8.30;99.90;;;;;;4864339;29;20068;-73
2021/04/06 04:43:09;;;;;;;13.00;5.20;;;8.30;99.90;;;;;;4864257;29;20137;-74
2021/04/06 04:45:35;;;;;;;10.27;5.22;;;8.30;99.90;;;;;;4864074;29;20129;-75
2021/04/06 04:48:01;;;;;;;11.57;5.20;;;8.30;99.90;;;;;;4863745;29;20088;-75
2021/04/06 04:50:27;;;;;;;14.93;5.03;;;8.30;99.90;;;;;;4864276;29;20038;-74
2021/04/06 04:52:52;;;;;;;9.27;5.05;;;8.30;99.90;;;;;;4863738;29;20045;-73
2021/04/06 04:55:20;;;;;;;12.30;5.55;;;8.30;99.90;;;;;;4864005;29;20052;-73
2021/04/06 04:57:46;;;;;;;14.88;5.53;;;8.30;99.90;;;;;;4863985;29;20052;-73
2021/04/06 05:00:14;;;;;;;14.27;5.78;;;8.30;99.90;;;;;;4862098;29;20115;-74
2021/04/06 05:02:40;;;;;;;12.50;5.15;;;8.30;99.90;;;;;;4863269;29;20779;-74
2021/04/06 05:05:07;;;;;;;9.13;5.07;;;8.40;99.90;;;;;;4863414;29;20045;-74
2021/04/06 05:07:35;;;;;;;16.15;5.45;;;8.40;99.90;;;;;;4863817;29;20490;-74
2021/04/06 05:10:01;;;;;;;8.45;4.78;;;8.40;99.90;;;;;;4863318;29;20085;-74
2021/04/06 05:12:27;;;;;;;10.50;5.40;;;8.40;99.90;;;;;;4863112;29;20413;-73
2021/04/06 05:14:55;;;;;;;7.90;4.55;;;8.30;99.90;;;;;;4863197;29;20049;-74
2021/04/06 05:17:21;;;;;;;10.70;5.22;;;8.30;99.90;;;;;;4863018;29;20075;-74
2021/04/06 05:19:46;;;;;;;11.90;5.20;;;8.30;99.90;;;;;;4863373;29;20077;-73
2021/04/06 05:22:12;;;;;;;11.32;5.10;;;8.30;99.90;;;;;;4863281;29;20124;-74
2021/04/06 05:24:38;;;;;;;8.43;5.03;;;8.30;99.90;;;;;;4856916;29;20053;-73
2021/04/06 05:27:04;;;;;;;8.10;4.70;;;8.30;99.90;;;;;;4856147;29;20096;-73
2021/04/06 05:29:30;;;;;;;7.95;4.95;;;8.40;99.90;;;;;;4862529;29;20502;-73
2021/04/06 05:31:57;;;;;;;9.93;5.13;;;8.30;99.90;;;;;;4862386;29;20034;-73
2021/04/06 05:34:22;;;;;;;10.50;4.55;;;8.30;99.90;;;;;;4862200;29;20053;-73
2021/04/06 05:36:48;;;;;;;10.23;5.30;;;8.40;99.90;;;;;;4862972;29;20154;-76
2021/04/06 05:39:15;;;;;;;13.35;5.03;;;8.40;99.90;;;;;;4861608;29;20043;-74
2021/04/06 05:41:46;;;;;;;8.27;4.70;;;8.30;99.90;;;;;;4860399;29;20040;-74
2021/04/06 05:44:12;;;;;;;10.90;4.95;;;8.30;99.90;;;;;;4861805;29;20049;-74
2021/04/06 05:46:40;;;;;;;9.77;4.40;;;8.30;99.90;;;;;;4862558;29;20053;-74
2021/04/06 05:49:10;;;;;;;8.07;4.15;;;8.40;99.90;;;;;;4845997;29;20045;-74
2021/04/06 05:51:40;;;;;;;5.55;4.10;;;8.50;99.80;;;;;;4861636;29;20064;-74
2021/04/06 05:54:13;;;;;;;9.07;4.78;;;8.50;99.90;;;;;;4849380;29;20057;-74
2021/04/06 05:56:40;;;;;;;7.03;4.18;;;8.50;99.90;;;;;;4858396;29;20095;-74
2021/04/06 05:59:06;;;;;;;8.48;3.83;;;8.50;99.90;;;;;;4861134;29;20145;-74
2021/04/06 06:01:34;;;;;;;7.80;4.47;;;8.50;99.90;;;;;;4861843;29;20073;-74
2021/04/06 06:04:00;;;;;;;7.18;4.40;;;8.50;99.90;;;;;;4861622;29;20136;-76
2021/04/06 06:06:26;;;;;;;10.07;4.32;;;8.50;99.80;;;;;;4861966;29;20394;-74
2021/04/06 06:08:57;;;;;;;7.22;4.03;;;8.50;99.70;;;;;;4860596;29;20109;-73
2021/04/06 06:11:23;;;;;;;6.97;4.15;;;8.60;99.10;;;;;;4861011;29;20046;-73
2021/04/06 06:13:49;;;;;;;8.80;3.88;;;8.60;98.00;;;;;;4853749;29;20056;-73
2021/04/06 06:16:24;;;;;;;8.38;4.65;;;8.60;97.40;;;;;;4861539;29;20050;-73
2021/04/06 06:19:10;;;;;;;7.97;4.00;;;8.70;97.20;;;;;;4860220;29;20056;-74
2021/04/06 06:21:43;;;;;;;9.45;4.30;;;8.60;97.10;;;;;;4858305;29;20048;-74
2021/04/06 06:24:10;;;;;;;6.13;3.83;;;8.60;97.00;;;;;;4860412;29;20498;-74
2021/04/06 06:26:37;;;;;;;8.07;4.22;;;8.80;96.50;;;;;;4860093;29;20060;-74
2021/04/06 06:29:11;;;;;;;10.27;4.75;;;8.70;96.10;;;;;;4858994;29;20128;-75
2021/04/06 06:31:44;;;;;;;8.88;4.05;;;8.70;95.80;;;;;;4860767;29;20049;-73
2021/04/06 06:34:30;;;;;;;7.28;3.67;;;8.70;95.60;;;;;;4861912;29;20076;-73
2021/04/06 06:37:04;;;;;;;8.60;4.18;;;8.70;95.70;;;;;;4861785;29;20498;-73
2021/04/06 06:39:30;;;;;;;10.63;4.78;;;8.70;95.10;;;;;;4861808;29;20309;-73
2021/04/06 06:42:01;;;;;;;8.13;4.70;;;8.80;95.60;;;;;;4861806;29;20089;-73
2021/04/06 06:44:29;;;;;;;6.97;4.22;;;8.70;95.50;;;;;;4861714;29;20571;-73
2021/04/06 06:47:11;;;;;;;6.38;3.83;;;8.80;95.10;;;;;;4861893;29;20049;-74
2021/04/06 06:49:39;;;;;;;11.45;4.45;;;8.90;94.60;;;;;;4861624;29;20431;-73
2021/04/06 06:52:26;;;;;;;8.23;3.58;;;8.80;94.20;;;;;;4862012;29;20042;-73
2021/04/06 06:54:58;;;;;;;7.10;4.43;;;8.80;94.10;;;;;;4861423;29;20051;-73
2021/04/06 06:57:33;;;;;;;8.18;4.32;;;8.90;93.60;;;;;;4861385;29;20493;-73
2021/04/06 07:00:11;;;;;;;10.82;5.03;;;8.80;93.80;;;;;;4861162;29;20065;-73
2021/04/06 07:02:38;;;;;;;7.40;4.18;;;8.80;93.70;;;;;;4861598;29;20045;-73
2021/04/06 07:05:12;;;;;;;9.82;5.30;;;8.90;94.40;;;;;;4861473;29;20072;-73
2021/04/06 07:07:57;;;;;;;6.82;4.07;;;8.90;92.20;;;;;;4861232;29;20056;-73
2021/04/06 07:10:34;;;;;;;7.78;4.07;;;9.00;93.40;;;;;;4861515;29;20508;-73
2021/04/06 07:13:21;;;;;;;9.07;4.28;;;8.90;92.20;;;;;;4860999;29;20045;-73
2021/04/06 07:15:49;;;;;;;8.48;4.50;;;9.00;92.20;;;;;;4861397;29;20049;-73
2021/04/06 07:18:17;;;;;;;8.07;3.88;;;9.10;91.80;;;;;;4860970;29;20478;-73
2021/04/06 07:20:51;;;;;;;7.72;3.78;;;9.00;90.40;;;;;;4861409;29;20045;-73
2021/04/06 07:23:41;;;;;;;7.25;3.63;;;8.90;89.60;;;;;;4852916;29;20041;-73
2021/04/06 07:26:09;;;;;;;9.23;4.72;;;8.90;89.70;;;;;;4860586;29;20045;-73
2021/04/06 07:28:37;;;;;;;9.90;4.05;;;9.00;90.40;;;;;;4860097;29;20038;-73
2021/04/06 07:31:04;;;;;;;10.75;3.60;;;9.00;87.70;;;;;;4860525;29;20049;-73
2021/04/06 07:33:31;;;;;;;12.27;3.78;;;9.10;87.80;;;;;;4860364;29;20049;-73
2021/04/06 07:36:37;;;;;;;7.53;4.13;;;9.20;88.40;;;;;;4860272;29;20049;-73
2021/04/06 07:39:14;;;;;;;6.75;3.47;;;9.30;87.60;;;;;;4852444;29;20041;-73
2021/04/06 07:41:43;;;;;;;7.28;3.63;;;9.50;88.20;;;;;;4860751;29;20116;-73
2021/04/06 07:44:10;;;;;;;7.60;3.58;;;9.70;84.90;;;;;;4860806;29;20235;-73
2021/04/06 07:46:36;;;;;;;9.35;4.05;;;9.60;84.50;;;;;;4860932;29;20086;-73
2021/04/06 07:49:19;;;;;;;6.43;3.45;;;9.40;85.40;;;;;;4861133;29;20080;-73
2021/04/06 07:51:45;;;;;;;8.10;4.10;;;9.60;85.40;;;;;;4861076;29;20056;-73
2021/04/06 07:54:25;;;;;;;6.32;3.75;;;9.60;84.90;;;;;;4844226;29;20034;-73
2021/04/06 07:57:00;;;;;;;6.47;3.20;;;9.60;84.40;;;;;;4860940;29;20053;-73
2021/04/06 07:59:26;;;;;;;6.05;3.55;;;9.50;83.60;;;;;;4859233;29;20090;-73
2021/04/06 08:01:52;;;;;;;6.97;3.63;;;9.50;84.30;;;;;;4861200;29;20037;-73
2021/04/06 08:04:25;;;;;;;8.27;3.80;;;9.40;84.80;;;;;;4860732;29;20064;-73
2021/04/06 08:06:53;;;;;;;7.95;3.75;;;9.60;83.70;;;;;;4861082;29;20042;-73
2021/04/06 08:09:32;;;;;;;11.98;3.88;;;9.40;82.70;;;;;;4858115;29;20053;-74
2021/04/06 08:12:12;;;;;;;9.38;3.88;;;9.60;83.00;;;;;;4853413;29;20063;-72
2021/04/06 08:14:39;;;;;;;10.70;3.65;;;9.70;82.40;;;;;;4860755;29;20054;-73
2021/04/06 08:17:27;;;;;;;6.15;3.50;;;9.60;82.30;;;;;;4860817;29;20152;-73
2021/04/06 08:19:59;;;;;;;4.82;3.42;;;9.60;82.30;;;;;;4858968;29;20092;-74
2021/04/06 08:22:28;;;;;;;10.90;4.07;;;9.50;81.90;;;;;;4860797;29;20049;-72
2021/04/06 08:25:21;;;;;;;7.50;3.50;;;9.60;81.10;;;;;;4860943;29;20520;-73
2021/04/06 08:27:46;;;;;;;7.55;3.20;;;9.80;80.20;;;;;;4849940;29;20041;-73
2021/04/06 08:30:18;;;;;;;6.97;3.80;;;9.90;79.20;;;;;;4859356;29;20038;-73
2021/04/06 08:32:56;;;;;;;6.80;3.03;;;10.00;78.50;;;;;;4860456;29;20046;-73
2021/04/06 08:35:49;;;;;;;7.05;3.20;;;10.00;78.70;;;;;;4860590;29;20052;-73
2021/04/06 08:41:04;;;;;;;7.55;3.13;;;10.10;77.80;;;;;;4859290;29;20049;-73
2021/04/06 08:43:34;;;;;;;7.47;3.33;;;10.20;77.50;;;;;;4857760;29;20041;-73
2021/04/06 08:46:04;;;;;;;8.90;3.10;;;9.90;77.50;;;;;;4856954;29;20049;-73
2021/04/06 08:48:51;;;;;;;7.68;3.08;;;10.20;76.50;;;;;;4848947;29;20049;-73
2021/04/06 08:51:23;;;;;;;10.75;3.60;;;10.30;77.90;;;;;;4858671;29;20045;-74
2021/04/06 08:53:52;;;;;;;5.72;3.17;;;10.20;75.80;;;;;;4857436;29;20064;-74
2021/04/06 08:56:30;;;;;;;5.55;2.95;;;10.20;74.50;;;;;;4861783;29;20128;-73
2021/04/06 08:59:23;;;;;;;8.25;2.90;;;10.30;73.60;;;;;;4860107;29;20057;-74
2021/04/06 09:02:04;;;;;;;5.70;2.78;;;10.40;74.50;;;;;;4862096;29;20045;-74
2021/04/06 09:04:35;;;;;;;8.02;2.90;;;10.30;73.00;;;;;;4862118;29;20045;-74
2021/04/06 09:07:01;;;;;;;5.65;2.97;;;10.30;74.10;;;;;;4861733;29;20050;-74
2021/04/06 09:09:29;;;;;;;7.20;3.15;;;10.40;74.00;;;;;;4862107;29;20041;-74
2021/04/06 09:11:57;;;;;;;6.03;2.53;;;10.20;73.90;;;;;;4861787;29;20049;-74
2021/04/06 09:14:24;;;;;;;5.57;2.92;;;10.20;74.20;;;;;;4861938;29;20042;-74
2021/04/06 09:16:51;;;;;;;5.05;2.95;;;10.00;74.90;;;;;;4861789;29;20078;-73
2021/04/06 09:19:18;;;;;;;4.82;2.60;;;9.90;74.80;;;;;;4861671;29;20581;-73
2021/04/06 09:21:54;;;;;;;9.52;3.35;;;10.20;75.30;;;;;;4860542;29;20132;-73
2021/04/06 09:24:22;;;;;;;7.77;2.70;;;10.10;75.60;;;;;;4861295;29;20525;-73
2021/04/06 09:26:50;;;;;;;5.80;3.03;;;9.80;76.60;;;;;;4862257;29;20485;-73
2021/04/06 09:29:37;;;;;;;4.38;2.97;;;9.50;76.80;;;;;;4863225;29;20076;-74
2021/04/06 09:32:09;;;;;;;5.82;2.92;;;9.70;78.40;;;;;;4862681;29;20581;-74
2021/04/06 09:34:37;;;;;;;6.85;3.08;;;9.80;77.80;;;;;;4862761;29;20043;-74
2021/04/06 09:37:11;;;;;;;4.00;2.75;;;9.70;78.40;;;;;;4863135;29;20490;-74
2021/04/06 09:39:43;;;;;;;9.73;3.13;;;9.90;77.60;;;;;;4862843;29;20513;-73
2021/04/06 09:42:10;;;;;;;6.43;2.38;;;10.00;76.00;;;;;;4862904;29;20053;-74
2021/04/06 09:44:38;;;;;;;9.20;2.88;;;9.70;76.20;;;;;;4862034;29;20549;-73
2021/04/06 09:47:19;;;;;;;5.82;2.58;;;9.90;75.30;;;;;;4863552;29;20093;-73
2021/04/06 09:49:50;;;;;;;4.10;2.22;;;9.70;73.90;;;;;;4850478;29;20040;-75
2021/04/06 09:52:19;;;;;;;4.03;2.40;;;9.40;75.40;;;;;;4859425;29;20073;-76
2021/04/06 09:55:01;;;;;;;11.20;8.43;;;9.30;75.80;;;;;;4862312;29;20041;-77
2021/04/06 09:57:36;;;;;;;7.63;5.13;;;9.50;75.00;;;;;;4861918;29;20045;-75
2021/04/06 10:00:08;;;;;;;71.93;42.88;;;9.70;75.30;;;;;;4855202;29;20141;-75
2021/04/06 10:02:34;;;;;;;7.40;3.33;;;9.80;72.30;;;;;;4859667;29;20041;-75
2021/04/06 10:05:00;;;;;;;6.82;3.08;;;9.90;73.40;;;;;;4859645;29;20053;-76
2021/04/06 10:07:33;;;;;;;224.02;118.95;;;9.80;70.50;;;;;;4861111;29;20046;-75
2021/04/06 10:10:01;;;;;;;14.38;8.10;;;9.60;70.10;;;;;;4862006;29;20060;-75
2021/04/06 10:12:30;;;;;;;6.35;3.00;;;9.70;72.10;;;;;;4861090;29;20101;-76
2021/04/06 10:14:57;;;;;;;15.30;6.40;;;9.60;70.20;;;;;;4861169;29;20564;-74
2021/04/06 10:17:33;;;;;;;5.95;2.90;;;9.50;69.90;;;;;;4859613;29;20041;-75
2021/04/06 10:20:34;;;;;;;24.40;21.65;;;9.60;71.10;;;;;;4858597;29;20053;-75
2021/04/06 10:23:00;;;;;;;5.30;2.33;;;9.60;68.80;;;;;;4859300;29;20042;-74
2021/04/06 10:25:32;;;;;;;7.47;3.97;;;9.50;68.70;;;;;;4860161;29;20140;-74
2021/04/06 10:28:00;;;;;;;5.78;2.47;;;9.70;68.00;;;;;;4860314;29;20047;-74
2021/04/06 10:30:51;;;;;;;3.58;2.35;;;9.60;68.30;;;;;;4861654;29;20041;-75
2021/04/06 10:33:18;;;;;;;25.57;18.37;;;9.70;69.90;;;;;;4861685;29;20045;-75
2021/04/06 10:36:05;;;;;;;13.93;8.95;;;9.50;68.70;;;;;;4861539;29;20066;-74
2021/04/06 10:38:37;;;;;;;14.57;11.30;;;9.40;67.30;;;;;;4861903;29;20132;-74
2021/04/06 10:41:10;;;;;;;9.65;5.60;;;9.40;67.10;;;;;;4861816;29;20041;-74
2021/04/06 10:43:38;;;;;;;6.35;3.63;;;9.40;66.30;;;;;;4861475;29;20097;-74
2021/04/06 10:46:07;;;;;;;7.63;2.97;;;9.50;65.90;;;;;;4861784;29;20045;-74
2021/04/06 10:48:36;;;;;;;6.45;2.22;;;9.60;66.10;;;;;;4861861;29;20053;-74
2021/04/06 10:51:07;;;;;;;14.32;2.55;;;9.50;65.10;;;;;;4861530;29;20505;-74
2021/04/06 10:53:41;;;;;;;5.47;2.45;;;9.30;63.50;;;;;;4861782;29;20049;-74
2021/04/06 10:56:21;;;;;;;3.78;2.13;;;9.20;63.00;;;;;;4861771;29;20117;-74
2021/04/06 10:58:49;;;;;;;4.53;2.10;;;9.20;64.30;;;;;;4861320;29;20042;-74
2021/04/06 11:01:41;;;;;;;5.20;2.42;;;9.30;64.00;;;;;;4861885;29;20041;-74
2021/04/06 11:04:12;;;;;;;13.38;6.50;;;9.30;62.50;;;;;;4851479;29;20076;-74
2021/04/06 11:06:44;;;;;;;7.60;4.20;;;9.70;62.70;;;;;;4861659;29;20276;-74
2021/04/06 11:09:15;;;;;;;17.75;8.13;;;9.60;60.90;;;;;;4858843;29;20053;-74
2021/04/06 11:11:43;;;;;;;7.45;2.35;;;9.50;60.70;;;;;;4855164;29;20116;-75
2021/04/06 11:14:11;;;;;;;6.03;2.50;;;9.60;60.00;;;;;;4858583;29;20509;-75
2021/04/06 11:16:39;;;;;;;8.25;6.85;;;9.70;61.00;;;;;;4859406;29;20045;-75
2021/04/06 11:19:09;;;;;;;6.40;2.70;;;9.80;59.90;;;;;;4855687;29;20501;-75
2021/04/06 11:21:40;;;;;;;19.17;14.80;;;10.00;59.60;;;;;;4855693;29;20061;-75
2021/04/06 11:24:07;;;;;;;6.37;2.40;;;9.90;58.40;;;;;;4860805;29;20045;-75
2021/04/06 11:26:33;;;;;;;5.75;2.42;;;9.90;58.80;;;;;;4860792;29;20072;-75
2021/04/06 11:29:00;;;;;;;5.80;2.10;;;10.10;59.40;;;;;;4859148;29;20176;-75
2021/04/06 11:31:27;;;;;;;6.20;2.17;;;10.00;57.30;;;;;;4854804;29;20124;-75
2021/04/06 11:33:53;;;;;;;6.78;2.20;;;9.90;57.50;;;;;;4855305;29;20436;-75
2021/04/06 11:36:19;;;;;;;28.42;17.15;;;9.90;58.00;;;;;;4857952;29;20056;-75
2021/04/06 11:38:49;;;;;;;10.10;6.97;;;9.90;56.10;;;;;;4859859;29;20042;-75
2021/04/06 11:41:18;;;;;;;4.97;2.28;;;9.90;56.50;;;;;;4858337;29;20060;-75
2021/04/06 11:43:45;;;;;;;6.00;2.00;;;10.00;55.80;;;;;;4858116;29;20038;-75
2021/04/06 11:46:12;;;;;;;5.88;2.28;;;10.10;55.60;;;;;;4858242;29;20045;-75
2021/04/06 11:48:38;;;;;;;9.48;3.35;;;10.20;55.70;;;;;;4858879;29;20045;-75
2021/04/06 11:51:04;;;;;;;4.90;2.92;;;10.10;54.80;;;;;;4851786;29;20558;-75
2021/04/06 11:53:30;;;;;;;5.45;1.80;;;10.40;54.80;;;;;;4858919;29;20045;-75
2021/04/06 11:55:56;;;;;;;3.67;2.35;;;10.30;53.60;;;;;;4859490;29;20088;-74
2021/04/06 11:58:22;;;;;;;3.28;1.85;;;10.20;53.50;;;;;;4859346;29;20068;-75
2021/04/06 12:00:49;;;;;;;6.57;2.10;;;10.30;54.50;;;;;;4858027;29;20580;-75
2021/04/06 12:03:16;;;;;;;5.18;2.15;;;10.20;53.90;;;;;;4842178;29;20045;-75
2021/04/06 12:05:43;;;;;;;6.75;1.92;;;10.40;54.40;;;;;;4859037;29;20051;-75
2021/04/06 12:08:09;;;;;;;5.93;1.98;;;10.50;53.40;;;;;;4858167;29;20128;-75
2021/04/06 12:10:36;;;;;;;4.35;1.90;;;10.50;53.50;;;;;;4859308;29;20520;-74
2021/04/06 12:13:03;;;;;;;4.32;1.65;;;10.60;54.00;;;;;;4860063;29;20033;-74
2021/04/06 12:15:29;;;;;;;5.88;1.73;;;10.60;53.60;;;;;;4857930;29;20049;-75
2021/04/06 12:17:55;;;;;;;4.82;1.75;;;10.70;52.70;;;;;;4858430;29;20109;-75
2021/04/06 12:20:21;;;;;;;6.10;1.95;;;10.50;51.80;;;;;;4859403;29;20128;-74
2021/04/06 12:22:47;;;;;;;7.22;2.53;;;10.60;52.40;;;;;;4844074;29;20455;-74
2021/04/06 12:25:13;;;;;;;5.53;1.85;;;10.60;52.10;;;;;;4863711;29;20077;-75
2021/04/06 12:27:39;;;;;;;5.75;2.10;;;10.60;51.70;;;;;;4876711;29;20400;-74
2021/04/06 12:30:06;;;;;;;5.53;1.95;;;10.80;52.90;;;;;;4863958;29;20042;-75
2021/04/06 12:32:32;;;;;;;8.27;2.55;;;10.70;50.90;;;;;;4862969;29;20094;-75
2021/04/06 12:34:59;;;;;;;3.22;1.77;;;10.50;51.20;;;;;;4862370;29;20054;-76
2021/04/06 12:37:26;;;;;;;5.38;1.98;;;10.40;51.80;;;;;;4862722;29;20085;-75
2021/04/06 12:39:52;;;;;;;8.18;2.00;;;10.70;53.20;;;;;;4862872;29;20100;-75
2021/04/06 12:42:17;;;;;;;7.20;1.75;;;10.60;51.00;;;;;;4862493;29;20140;-75
2021/04/06 12:44:43;;;;;;;7.05;1.83;;;10.80;51.30;;;;;;4862390;29;20045;-75
2021/04/06 12:47:09;;;;;;;5.32;1.50;;;10.90;51.20;;;;;;4861579;29;20188;-76
2021/04/06 12:49:35;;;;;;;10.00;2.38;;;10.90;50.70;;;;;;4873621;29;20506;-75
2021/04/06 12:52:02;;;;;;;5.22;2.05;;;10.90;51.40;;;;;;4862228;29;20037;-75
2021/04/06 12:54:28;;;;;;;6.20;2.10;;;11.00;51.20;;;;;;4861288;29;20052;-75
2021/04/06 12:56:53;;;;;;;4.40;1.80;;;10.90;51.10;;;;;;4863001;29;20207;-75
2021/04/06 12:59:20;;;;;;;4.85;2.00;;;10.90;51.20;;;;;;4861586;29;20548;-75
2021/04/06 13:01:46;;;;;;;5.22;1.70;;;11.00;50.90;;;;;;4862850;29;20044;-75
2021/04/06 13:04:11;;;;;;;7.90;2.17;;;11.00;51.70;;;;;;4851623;29;20041;-75
2021/04/06 13:06:38;;;;;;;7.13;2.15;;;11.30;51.50;;;;;;4857984;29;20132;-75
2021/04/06 13:09:08;;;;;;;6.22;2.55;;;11.10;51.70;;;;;;4862865;29;20049;-75